createdAt,value
2018-10-11T00:00:31.924Z,17.60
2018-10-11T00:01:32.152Z,18.20
2018-10-11T00:02:32.383Z,18.40
2018-10-11T00:03:32.610Z,17.90
2018-10-11T00:04:32.836Z,17.90
2018-10-11T00:05:33.061Z,18.40
2018-10-11T00:06:33.288Z,17.90
2018-10-11T00:07:33.520Z,18.30
2018-10-11T00:08:33.748Z,18.20
2018-10-11T00:09:33.973Z,18.30
2018-10-11T00:10:34.203Z,17.40
2018-10-11T00:11:34.430Z,17.50
2018-10-11T00:12:34.657Z,18.30
2018-10-11T00:13:34.885Z,18.60
2018-10-11T00:14:35.119Z,20.00
2018-10-11T00:15:35.343Z,18.30
2018-10-11T00:16:35.568Z,19.60
2018-10-11T00:17:35.794Z,19.70
2018-10-11T00:18:36.026Z,19.60
2018-10-11T00:19:36.253Z,20.00
2018-10-11T00:20:36.480Z,20.40
2018-10-11T00:21:36.710Z,22.30
2018-10-11T00:22:36.936Z,22.60
2018-10-11T00:23:37.163Z,21.10
2018-10-11T00:24:37.391Z,17.90
2018-10-11T00:25:37.620Z,18.30
2018-10-11T00:26:37.845Z,19.00
2018-10-11T00:27:38.075Z,18.40
2018-10-11T00:28:38.301Z,19.30
2018-10-11T00:29:38.527Z,18.70
2018-10-11T00:30:38.782Z,18.60
2018-10-11T00:31:38.980Z,18.90
2018-10-11T00:32:39.205Z,18.30
2018-10-11T00:33:39.432Z,18.20
2018-10-11T00:34:39.660Z,18.70
2018-10-11T00:35:39.887Z,19.90
2018-10-11T00:36:40.116Z,20.70
2018-10-11T00:37:40.343Z,20.30
2018-10-11T00:38:40.571Z,21.20
2018-10-11T00:39:40.796Z,20.50
2018-10-11T00:40:41.023Z,19.30
2018-10-11T00:41:41.251Z,20.20
2018-10-11T00:42:41.476Z,19.00
2018-10-11T00:43:41.703Z,18.50
2018-10-11T00:44:41.933Z,19.00
2018-10-11T00:45:42.157Z,19.10
2018-10-11T00:46:42.387Z,19.10
2018-10-11T00:47:42.614Z,18.90
2018-10-11T00:48:42.839Z,17.20
2018-10-11T00:49:43.068Z,16.40
2018-10-11T00:50:43.296Z,17.00
2018-10-11T00:51:43.523Z,18.10
2018-10-11T00:52:43.751Z,18.00
2018-10-11T00:53:43.978Z,18.30
2018-10-11T00:54:44.204Z,18.00
2018-10-11T00:55:44.428Z,18.30
2018-10-11T00:56:44.653Z,17.70
2018-10-11T00:57:44.880Z,17.90
2018-10-11T00:58:45.109Z,17.90
2018-10-11T00:59:45.333Z,19.50
2018-10-11T01:00:45.562Z,18.30
2018-10-11T01:01:45.790Z,18.10
2018-10-11T01:02:46.020Z,16.80
2018-10-11T01:03:46.245Z,18.20
2018-10-11T01:04:46.469Z,17.20
2018-10-11T01:05:46.697Z,17.70
2018-10-11T01:06:46.925Z,17.10
2018-10-11T01:07:47.159Z,18.40
2018-10-11T01:08:47.376Z,18.00
2018-10-11T01:09:47.628Z,18.60
2018-10-11T01:10:47.830Z,18.70
2018-10-11T01:11:48.057Z,18.70
2018-10-11T01:12:48.285Z,17.60
2018-10-11T01:13:48.513Z,18.40
2018-10-11T01:14:48.745Z,18.70
2018-10-11T01:15:48.971Z,18.80
2018-10-11T01:16:49.185Z,19.20
2018-10-11T01:17:49.428Z,19.60
2018-10-11T01:18:49.657Z,19.30
2018-10-11T01:19:49.884Z,20.10
2018-10-11T01:20:50.111Z,19.40
2018-10-11T01:21:50.344Z,18.90
2018-10-11T01:22:50.568Z,18.80
2018-10-11T01:23:50.853Z,20.60
2018-10-11T01:24:51.024Z,19.10
2018-10-11T01:25:51.250Z,20.20
2018-10-11T01:26:51.477Z,21.60
2018-10-11T01:27:51.706Z,20.50
2018-10-11T01:28:51.933Z,20.80
2018-10-11T01:29:52.288Z,19.90
2018-10-11T01:30:52.392Z,20.50
2018-10-11T01:31:52.617Z,20.30
2018-10-11T01:32:52.844Z,20.20
2018-10-11T01:33:53.074Z,20.80
2018-10-11T01:34:53.300Z,19.40
2018-10-11T01:35:53.530Z,18.30
2018-10-11T01:36:53.756Z,17.20
2018-10-11T01:37:53.985Z,18.80
2018-10-11T01:38:54.296Z,18.90
2018-10-11T01:39:54.443Z,17.00
2018-10-11T01:40:54.669Z,17.90
2018-10-11T01:41:54.894Z,18.50
2018-10-11T01:42:55.119Z,17.20
2018-10-11T01:43:55.349Z,17.40
2018-10-11T01:44:55.574Z,17.40
2018-10-11T01:45:55.807Z,17.90
2018-10-11T01:46:56.030Z,18.20
2018-10-11T01:47:56.257Z,17.50
2018-10-11T01:48:56.481Z,17.90
2018-10-11T01:49:56.711Z,18.80
2018-10-11T01:50:56.939Z,18.40
2018-10-11T01:51:57.162Z,19.00
2018-10-11T01:52:57.387Z,18.90
2018-10-11T01:53:57.614Z,18.20
2018-10-11T01:54:57.843Z,19.10
2018-10-11T01:55:58.083Z,18.60
2018-10-11T01:56:58.297Z,19.10
2018-10-11T01:57:58.528Z,19.60
2018-10-11T01:58:58.754Z,19.20
2018-10-11T01:59:58.980Z,20.40
2018-10-11T02:00:59.206Z,19.50
2018-10-11T02:01:59.436Z,19.40
2018-10-11T02:02:59.664Z,19.30
2018-10-11T02:03:59.893Z,18.70
2018-10-11T02:05:00.119Z,17.80
2018-10-11T02:06:00.346Z,18.80
2018-10-11T02:07:00.572Z,18.00
2018-10-11T02:08:00.801Z,19.50
2018-10-11T02:09:01.028Z,17.90
2018-10-11T02:10:01.253Z,20.10
2018-10-11T02:11:01.481Z,20.70
2018-10-11T02:12:01.707Z,20.90
2018-10-11T02:13:01.935Z,21.30
2018-10-11T02:14:02.163Z,25.40
2018-10-11T02:15:02.389Z,25.20
2018-10-11T02:16:02.622Z,25.00
2018-10-11T02:17:02.844Z,29.00
2018-10-11T02:18:03.070Z,29.40
2018-10-11T02:19:03.295Z,28.50
2018-10-11T02:20:03.525Z,26.10
2018-10-11T02:21:03.749Z,23.00
2018-10-11T02:22:03.981Z,24.30
2018-10-11T02:23:04.203Z,21.00
2018-10-11T02:24:04.432Z,20.40
2018-10-11T02:25:04.661Z,22.10
2018-10-11T02:26:04.888Z,20.80
2018-10-11T02:27:05.115Z,20.30
2018-10-11T02:28:05.339Z,20.40
2018-10-11T02:29:05.569Z,18.60
2018-10-11T02:30:05.799Z,18.60
2018-10-11T02:31:06.032Z,18.70
2018-10-11T02:32:06.287Z,18.20
2018-10-11T02:33:06.483Z,18.80
2018-10-11T02:34:06.711Z,17.10
2018-10-11T02:35:06.937Z,18.60
2018-10-11T02:36:07.167Z,19.20
2018-10-11T02:37:07.393Z,18.40
2018-10-11T02:38:07.616Z,19.00
2018-10-11T02:39:07.849Z,18.70
2018-10-11T02:40:08.075Z,20.00
2018-10-11T02:41:08.298Z,18.80
2018-10-11T02:42:08.524Z,19.40
2018-10-11T02:43:08.756Z,18.90
2018-10-11T02:44:08.981Z,18.90
2018-10-11T02:45:09.209Z,19.80
2018-10-11T02:46:09.438Z,20.40
2018-10-11T02:47:09.662Z,21.60
2018-10-11T02:48:09.895Z,21.70
2018-10-11T02:49:10.124Z,20.70
2018-10-11T02:50:10.349Z,20.00
2018-10-11T02:51:10.578Z,19.50
2018-10-11T02:52:10.805Z,21.00
2018-10-11T02:53:11.034Z,20.70
2018-10-11T02:54:11.264Z,18.00
2018-10-11T02:55:11.487Z,19.20
2018-10-11T02:56:11.710Z,19.00
2018-10-11T02:57:11.937Z,19.10
2018-10-11T02:58:12.162Z,17.90
2018-10-11T02:59:12.392Z,18.80
2018-10-11T03:00:12.615Z,18.30
2018-10-11T03:01:12.843Z,18.30
2018-10-11T03:02:13.067Z,18.50
2018-10-11T03:03:13.297Z,18.60
2018-10-11T03:04:13.527Z,18.80
2018-10-11T03:05:13.754Z,18.90
2018-10-11T03:06:13.982Z,19.20
2018-10-11T03:07:14.206Z,18.90
2018-10-11T03:08:14.436Z,18.70
2018-10-11T03:09:14.665Z,19.10
2018-10-11T03:10:14.889Z,17.50
2018-10-11T03:11:15.117Z,17.20
2018-10-11T03:12:15.343Z,17.60
2018-10-11T03:13:15.569Z,17.70
2018-10-11T03:14:15.804Z,17.50
2018-10-11T03:15:16.021Z,17.10
2018-10-11T03:16:16.251Z,17.40
2018-10-11T03:17:16.478Z,17.40
2018-10-11T03:18:16.707Z,16.60
2018-10-11T03:19:16.933Z,18.00
2018-10-11T03:20:17.158Z,17.00
2018-10-11T03:21:17.391Z,17.70
2018-10-11T03:22:17.615Z,17.60
2018-10-11T03:23:17.844Z,16.90
2018-10-11T03:24:18.136Z,17.40
2018-10-11T03:25:18.300Z,17.90
2018-10-11T03:26:18.525Z,18.50
2018-10-11T03:27:18.753Z,18.30
2018-10-11T03:28:18.980Z,18.80
2018-10-11T03:29:19.207Z,19.50
2018-10-11T03:30:19.437Z,18.50
2018-10-11T03:31:19.663Z,17.90
2018-10-11T03:32:19.892Z,18.10
2018-10-11T03:33:20.116Z,17.30
2018-10-11T03:34:20.345Z,15.80
2018-10-11T03:35:20.573Z,18.10
2018-10-11T03:36:20.801Z,17.30
2018-10-11T03:37:21.028Z,17.00
2018-10-11T03:38:21.256Z,19.10
2018-10-11T03:39:21.481Z,18.20
2018-10-11T03:40:21.709Z,18.10
2018-10-11T03:41:21.938Z,17.90
2018-10-11T03:42:22.169Z,18.00
2018-10-11T03:43:22.393Z,18.50
2018-10-11T03:44:22.619Z,17.50
2018-10-11T03:45:22.845Z,17.50
2018-10-11T03:46:23.119Z,17.80
2018-10-11T03:47:23.298Z,18.70
2018-10-11T03:48:23.526Z,19.10
2018-10-11T03:49:23.754Z,18.80
2018-10-11T03:50:23.985Z,18.10
2018-10-11T03:51:24.206Z,18.60
2018-10-11T03:52:24.434Z,19.20
2018-10-11T03:53:24.666Z,17.70
2018-10-11T03:54:24.892Z,18.10
2018-10-11T03:55:25.122Z,18.50
2018-10-11T03:56:25.345Z,17.80
2018-10-11T03:57:25.574Z,18.60
2018-10-11T03:58:25.800Z,18.10
2018-10-11T03:59:26.030Z,19.10
2018-10-11T04:00:26.254Z,19.00
2018-10-11T04:01:26.480Z,18.10
2018-10-11T04:02:26.709Z,18.50
2018-10-11T04:03:26.935Z,18.00
2018-10-11T04:04:27.162Z,17.70
2018-10-11T04:05:27.390Z,18.70
2018-10-11T04:06:27.614Z,19.10
2018-10-11T04:07:27.852Z,18.40
2018-10-11T04:08:28.070Z,17.60
2018-10-11T04:09:28.296Z,19.30
2018-10-11T04:10:28.525Z,19.30
2018-10-11T04:11:28.752Z,20.00
2018-10-11T04:12:28.983Z,21.10
2018-10-11T04:13:29.209Z,19.60
2018-10-11T04:14:29.439Z,20.50
2018-10-11T04:15:29.717Z,19.40
2018-10-11T04:16:29.891Z,18.80
2018-10-11T04:17:30.123Z,19.30
2018-10-11T04:18:30.348Z,19.20
2018-10-11T04:19:30.574Z,18.70
2018-10-11T04:20:30.800Z,18.40
2018-10-11T04:21:31.028Z,17.20
2018-10-11T04:22:31.253Z,20.20
2018-10-11T04:23:31.482Z,21.20
2018-10-11T04:24:31.709Z,21.70
2018-10-11T04:25:31.937Z,21.00
2018-10-11T04:26:32.163Z,20.60
2018-10-11T04:27:32.389Z,20.60
2018-10-11T04:28:32.620Z,20.60
2018-10-11T04:29:32.853Z,20.50
2018-10-11T04:30:33.073Z,20.00
2018-10-11T04:31:33.300Z,20.50
2018-10-11T04:32:33.523Z,19.50
2018-10-11T04:33:33.753Z,21.60
2018-10-11T04:34:33.983Z,18.90
2018-10-11T04:35:34.208Z,32.20
2018-10-11T04:36:34.434Z,24.30
2018-10-11T04:37:34.680Z,22.70
2018-10-11T04:38:34.886Z,19.70
2018-10-11T04:39:35.112Z,19.20
2018-10-11T04:40:35.339Z,18.10
2018-10-11T04:41:35.611Z,18.80
2018-10-11T04:42:35.803Z,18.30
2018-10-11T04:43:36.019Z,19.60
2018-10-11T04:44:36.247Z,17.90
2018-10-11T04:45:36.473Z,19.00
2018-10-11T04:46:36.698Z,19.30
2018-10-11T04:47:36.926Z,19.30
2018-10-11T04:48:37.154Z,19.60
2018-10-11T04:49:37.385Z,19.30
2018-10-11T04:50:37.608Z,17.90
2018-10-11T04:51:37.838Z,18.30
2018-10-11T04:52:38.061Z,18.50
2018-10-11T04:53:38.314Z,18.60
2018-10-11T04:54:38.515Z,18.90
2018-10-11T04:55:38.744Z,19.20
2018-10-11T04:56:38.971Z,18.70
2018-10-11T04:57:39.201Z,18.70
2018-10-11T04:58:39.428Z,19.30
2018-10-11T04:59:39.658Z,18.10
2018-10-11T05:00:39.881Z,17.90
2018-10-11T05:01:40.106Z,17.80
2018-10-11T05:02:40.331Z,18.30
2018-10-11T05:03:40.554Z,17.10
2018-10-11T05:04:40.783Z,17.60
2018-10-11T05:05:41.007Z,20.20
2018-10-11T05:06:41.234Z,20.80
2018-10-11T05:07:41.461Z,21.80
2018-10-11T05:08:41.687Z,22.00
2018-10-11T05:09:41.913Z,18.70
2018-10-11T05:10:42.138Z,19.50
2018-10-11T05:11:42.366Z,19.40
2018-10-11T05:12:42.593Z,18.40
2018-10-11T05:13:42.819Z,18.90
2018-10-11T05:14:43.061Z,19.80
2018-10-11T05:15:43.313Z,19.70
2018-10-11T05:16:43.538Z,20.00
2018-10-11T05:17:43.764Z,20.30
2018-10-11T05:18:43.992Z,20.20
2018-10-11T05:19:44.220Z,19.90
2018-10-11T05:20:44.448Z,19.40
2018-10-11T05:21:44.675Z,18.70
2018-10-11T05:22:44.902Z,18.70
2018-10-11T05:23:45.129Z,18.60
2018-10-11T05:24:45.353Z,19.00
2018-10-11T05:25:45.581Z,18.90
2018-10-11T05:26:45.807Z,19.10
2018-10-11T05:27:46.033Z,21.00
2018-10-11T05:28:46.259Z,21.00
2018-10-11T05:29:46.490Z,20.20
2018-10-11T05:30:46.714Z,20.80
2018-10-11T05:31:46.941Z,20.50
2018-10-11T05:32:47.170Z,22.30
2018-10-11T05:33:47.394Z,21.70
2018-10-11T05:34:47.626Z,22.20
2018-10-11T05:35:47.854Z,21.60
2018-10-11T05:36:48.078Z,21.20
2018-10-11T05:37:48.304Z,21.10
2018-10-11T05:38:48.532Z,19.90
2018-10-11T05:39:48.760Z,18.90
2018-10-11T05:40:48.986Z,20.20
2018-10-11T05:41:49.220Z,19.80
2018-10-11T05:42:49.442Z,19.80
2018-10-11T05:43:49.669Z,19.40
2018-10-11T05:44:49.893Z,19.30
2018-10-11T05:45:50.119Z,20.10
2018-10-11T05:46:50.343Z,19.10
2018-10-11T05:47:50.569Z,20.60
2018-10-11T05:48:50.797Z,20.00
2018-10-11T05:49:51.025Z,19.40
2018-10-11T05:50:51.253Z,19.50
2018-10-11T05:51:51.481Z,18.60
2018-10-11T05:52:51.709Z,19.80
2018-10-11T05:53:51.935Z,18.70
2018-10-11T05:54:52.163Z,18.60
2018-10-11T05:55:52.391Z,19.10
2018-10-11T05:56:52.617Z,20.20
2018-10-11T05:57:52.840Z,19.90
2018-10-11T05:58:53.071Z,20.50
2018-10-11T05:59:53.300Z,20.50
2018-10-11T06:00:53.525Z,19.20
2018-10-11T06:01:53.753Z,18.30
2018-10-11T06:02:53.983Z,19.10
2018-10-11T06:03:54.208Z,19.00
2018-10-11T06:04:54.437Z,18.70
2018-10-11T06:05:54.662Z,19.50
2018-10-11T06:06:54.892Z,18.30
2018-10-11T06:07:55.119Z,19.20
2018-10-11T06:08:55.343Z,19.00
2018-10-11T06:09:55.573Z,18.90
2018-10-11T06:10:55.799Z,18.30
2018-10-11T06:11:56.034Z,17.80
2018-10-11T06:12:56.251Z,19.40
2018-10-11T06:13:56.477Z,19.00
2018-10-11T06:14:56.704Z,18.90
2018-10-11T06:15:56.932Z,19.60
2018-10-11T06:16:57.160Z,20.00
2018-10-11T06:17:57.486Z,19.00
2018-10-11T06:18:57.610Z,20.50
2018-10-11T06:19:57.837Z,19.70
2018-10-11T06:20:58.074Z,17.90
2018-10-11T06:21:58.290Z,18.80
2018-10-11T06:22:58.525Z,19.30
2018-10-11T06:23:58.746Z,18.50
2018-10-11T06:24:58.976Z,19.20
2018-10-11T06:25:59.202Z,18.60
2018-10-11T06:26:59.433Z,18.20
2018-10-11T06:27:59.660Z,17.70
2018-10-11T06:28:59.885Z,17.40
2018-10-11T06:30:00.112Z,17.50
2018-10-11T06:31:00.340Z,17.10
2018-10-11T06:32:00.583Z,17.10
2018-10-11T06:33:00.796Z,16.30
2018-10-11T06:34:01.024Z,15.90
2018-10-11T06:35:01.250Z,16.60
2018-10-11T06:36:01.533Z,16.10
2018-10-11T06:37:01.709Z,16.00
2018-10-11T06:38:01.933Z,16.10
2018-10-11T06:39:02.160Z,16.20
2018-10-11T06:40:02.390Z,15.20
2018-10-11T06:41:02.613Z,16.00
2018-10-11T06:42:02.857Z,15.30
2018-10-11T06:43:03.070Z,16.30
2018-10-11T06:44:03.303Z,16.50
2018-10-11T06:45:03.526Z,15.80
2018-10-11T06:46:03.754Z,15.10
2018-10-11T06:47:03.979Z,16.10
2018-10-11T06:48:04.207Z,16.10
2018-10-11T06:49:04.434Z,15.80
2018-10-11T06:50:04.696Z,15.00
2018-10-11T06:51:04.888Z,15.00
2018-10-11T06:52:05.112Z,15.20
2018-10-11T06:53:05.337Z,14.30
2018-10-11T06:54:05.564Z,15.50
2018-10-11T06:55:05.790Z,14.70
2018-10-11T06:56:06.034Z,14.80
2018-10-11T06:57:06.243Z,13.50
2018-10-11T06:58:06.478Z,14.10
2018-10-11T06:59:06.699Z,13.50
2018-10-11T07:00:06.928Z,13.80
2018-10-11T07:01:07.153Z,18.80
2018-10-11T07:02:07.381Z,14.80
2018-10-11T07:03:07.610Z,13.50
2018-10-11T07:04:07.837Z,14.80
2018-10-11T07:05:08.061Z,13.40
2018-10-11T07:06:08.294Z,13.00
2018-10-11T07:07:08.519Z,13.10
2018-10-11T07:08:08.749Z,12.00
2018-10-11T07:09:08.978Z,12.50
2018-10-11T07:10:09.199Z,13.00
2018-10-11T07:11:09.426Z,12.90
2018-10-11T07:12:09.657Z,12.90
2018-10-11T07:13:09.884Z,12.40
2018-10-11T07:14:10.111Z,12.50
2018-10-11T07:15:10.337Z,13.10
2018-10-11T07:16:10.566Z,11.90
2018-10-11T07:17:10.793Z,11.50
2018-10-11T07:18:11.018Z,13.30
2018-10-11T07:19:11.304Z,12.20
2018-10-11T07:20:11.481Z,12.20
2018-10-11T07:21:11.701Z,12.10
2018-10-11T07:22:11.929Z,12.70
2018-10-11T07:23:12.156Z,12.80
2018-10-11T07:24:12.385Z,13.00
2018-10-11T07:25:12.613Z,13.40
2018-10-11T07:26:12.842Z,14.00
2018-10-11T07:27:13.069Z,14.50
2018-10-11T07:28:13.296Z,14.10
2018-10-11T07:29:13.524Z,15.60
2018-10-11T07:30:13.753Z,15.30
2018-10-11T07:31:13.978Z,15.40
2018-10-11T07:32:14.211Z,15.20
2018-10-11T07:33:14.436Z,15.20
2018-10-11T07:34:14.669Z,17.60
2018-10-11T07:35:14.952Z,20.90
2018-10-11T07:36:15.124Z,20.20
2018-10-11T07:37:15.353Z,18.60
2018-10-11T07:38:15.583Z,18.40
2018-10-11T07:39:15.811Z,17.40
2018-10-11T07:40:16.057Z,17.40
2018-10-11T07:41:16.266Z,20.30
2018-10-11T07:42:16.490Z,16.60
2018-10-11T07:43:16.720Z,19.50
2018-10-11T07:44:16.947Z,21.00
2018-10-11T07:45:17.175Z,18.20
2018-10-11T07:46:17.403Z,18.70
2018-10-11T07:47:17.689Z,20.10
2018-10-11T07:48:17.859Z,18.80
2018-10-11T07:49:18.087Z,18.50
2018-10-11T07:50:18.315Z,17.80
2018-10-11T07:51:18.548Z,19.60
2018-10-11T07:52:18.773Z,18.80
2018-10-11T07:53:19.006Z,18.70
2018-10-11T07:54:19.229Z,17.90
2018-10-11T07:55:19.468Z,17.30
2018-10-11T07:56:19.710Z,17.00
2018-10-11T07:57:19.938Z,18.00
2018-10-11T07:58:20.165Z,16.20
2018-10-11T07:59:20.405Z,15.10
2018-10-11T08:00:20.621Z,16.60
2018-10-11T08:01:20.893Z,16.10
2018-10-11T08:02:21.080Z,14.80
2018-10-11T08:03:21.312Z,14.70
2018-10-11T08:04:21.539Z,15.60
2018-10-11T08:05:21.768Z,16.20
2018-10-11T08:06:22.000Z,16.10
2018-10-11T08:07:22.300Z,16.20
2018-10-11T08:08:22.521Z,16.90
2018-10-11T08:09:22.686Z,16.80
2018-10-11T08:10:23.007Z,16.90
2018-10-11T08:11:23.176Z,16.80
2018-10-11T08:12:23.377Z,16.30
2018-10-11T08:13:23.624Z,17.80
2018-10-11T08:14:23.834Z,17.30
2018-10-11T08:15:24.062Z,17.90
2018-10-11T08:16:24.359Z,17.10
2018-10-11T08:17:24.789Z,18.50
2018-10-11T08:18:24.749Z,17.80
2018-10-11T08:19:25.152Z,17.40
2018-10-11T08:20:25.254Z,17.70
2018-10-11T08:21:25.449Z,17.70
2018-10-11T08:22:25.663Z,17.70
2018-10-11T08:23:25.891Z,17.30
2018-10-11T08:24:26.169Z,17.50
2018-10-11T08:25:26.595Z,17.60
2018-10-11T08:26:27.010Z,18.40
2018-10-11T08:27:26.812Z,19.10
2018-10-11T08:28:27.039Z,19.20
2018-10-11T08:29:27.270Z,18.50
2018-10-11T08:30:27.516Z,19.40
2018-10-11T08:31:27.758Z,19.10
2018-10-11T08:32:28.051Z,19.50
2018-10-11T08:33:28.183Z,19.00
2018-10-11T08:34:28.413Z,17.80
2018-10-11T08:35:28.643Z,18.50
2018-10-11T08:36:28.877Z,18.20
2018-10-11T08:37:29.120Z,19.00
2018-10-11T08:38:29.394Z,18.00
2018-10-11T08:39:29.562Z,16.90
2018-10-11T08:40:29.792Z,18.20
2018-10-11T08:41:30.020Z,17.80
2018-10-11T08:42:30.247Z,19.30
2018-10-11T08:43:30.518Z,17.50
2018-10-11T08:44:30.708Z,18.20
2018-10-11T08:45:30.939Z,17.20
2018-10-11T08:46:31.164Z,17.20
2018-10-11T08:47:31.394Z,17.20
2018-10-11T08:48:31.625Z,16.30
2018-10-11T08:49:31.853Z,16.80
2018-10-11T08:50:32.116Z,15.80
2018-10-11T08:51:32.311Z,15.90
2018-10-11T08:52:32.540Z,15.80
2018-10-11T08:53:32.834Z,15.50
2018-10-11T08:54:32.997Z,16.60
2018-10-11T08:55:33.344Z,17.00
2018-10-11T08:56:33.460Z,16.10
2018-10-11T08:57:33.686Z,15.80
2018-10-11T08:58:33.921Z,15.30
2018-10-11T08:59:34.178Z,14.30
2018-10-11T09:00:34.380Z,14.80
2018-10-11T09:01:34.608Z,15.20
2018-10-11T09:02:34.838Z,15.20
2018-10-11T09:03:35.203Z,15.20
2018-10-11T09:04:35.298Z,15.80
2018-10-11T09:05:35.524Z,15.00
2018-10-11T09:06:35.755Z,16.00
2018-10-11T09:07:35.989Z,16.50
2018-10-11T09:08:36.211Z,15.40
2018-10-11T09:09:36.512Z,15.40
2018-10-11T09:10:38.449Z,14.80
2018-10-11T09:11:36.907Z,14.00
2018-10-11T09:12:37.138Z,15.00
2018-10-11T09:13:37.366Z,14.10
2018-10-11T09:14:37.601Z,14.20
2018-10-11T09:15:37.829Z,13.70
2018-10-11T09:16:38.059Z,14.10
2018-10-11T09:17:38.292Z,14.60
2018-10-11T09:18:38.518Z,13.80
2018-10-11T09:19:38.772Z,14.30
2018-10-11T09:20:38.979Z,13.70
2018-10-11T09:21:39.208Z,13.40
2018-10-11T09:22:39.436Z,13.60
2018-10-11T09:23:39.666Z,13.30
2018-10-11T09:24:39.896Z,13.00
2018-10-11T09:25:40.135Z,13.90
2018-10-11T09:26:40.356Z,12.90
2018-10-11T09:27:40.598Z,12.80
2018-10-11T09:28:40.828Z,13.10
2018-10-11T09:29:41.052Z,13.50
2018-10-11T09:30:41.371Z,13.00
2018-10-11T09:31:41.514Z,11.90
2018-10-11T09:32:41.761Z,12.20
2018-10-11T09:33:41.991Z,11.20
2018-10-11T09:34:42.223Z,11.70
2018-10-11T09:35:42.451Z,11.20
2018-10-11T09:36:42.685Z,11.00
2018-10-11T09:37:42.913Z,11.40
2018-10-11T09:38:43.143Z,11.20
2018-10-11T09:39:43.373Z,11.50
2018-10-11T09:40:43.603Z,11.50
2018-10-11T09:41:43.834Z,10.80
2018-10-11T09:42:44.063Z,10.60
2018-10-11T09:43:44.295Z,12.50
2018-10-11T09:44:44.526Z,11.00
2018-10-11T09:45:44.758Z,11.20
2018-10-11T09:46:44.990Z,11.40
2018-10-11T09:47:45.228Z,10.70
2018-10-11T09:48:45.465Z,11.40
2018-10-11T09:49:45.681Z,11.40
2018-10-11T09:50:45.916Z,10.40
2018-10-11T09:51:46.144Z,10.10
2018-10-11T09:52:46.375Z,10.40
2018-10-11T09:53:46.609Z,11.10
2018-10-11T09:54:46.861Z,10.90
2018-10-11T09:55:47.071Z,12.00
2018-10-11T09:56:47.298Z,11.80
2018-10-11T09:57:47.534Z,11.10
2018-10-11T09:58:47.778Z,11.60
2018-10-11T09:59:48.008Z,11.80
2018-10-11T10:00:48.240Z,10.70
2018-10-11T10:01:48.470Z,10.10
2018-10-11T10:02:48.702Z,9.70
2018-10-11T10:03:48.930Z,9.70
2018-10-11T10:04:49.157Z,9.40
2018-10-11T10:05:49.393Z,10.00
2018-10-11T10:06:49.619Z,10.30
2018-10-11T10:07:49.853Z,8.80
2018-10-11T10:08:50.083Z,9.20
2018-10-11T10:09:50.331Z,9.10
2018-10-11T10:10:50.546Z,8.90
2018-10-11T10:11:51.029Z,8.60
2018-10-11T10:12:51.006Z,9.10
2018-10-11T10:13:51.236Z,8.90
2018-10-11T10:14:51.467Z,8.50
2018-10-11T10:15:51.699Z,8.70
2018-10-11T10:16:51.932Z,9.30
2018-10-11T10:17:52.155Z,9.00
2018-10-11T10:18:52.399Z,9.10
2018-10-11T10:19:52.633Z,9.00
2018-10-11T10:20:52.859Z,8.80
2018-10-11T10:21:53.089Z,9.20
2018-10-11T10:22:53.316Z,8.50
2018-10-11T10:23:53.553Z,8.30
2018-10-11T10:24:53.785Z,8.30
2018-10-11T10:25:54.020Z,8.30
2018-10-11T10:26:54.283Z,8.10
2018-10-11T10:27:54.478Z,8.40
2018-10-11T10:28:54.709Z,8.50
2018-10-11T10:29:54.944Z,9.10
2018-10-11T10:30:55.171Z,8.60
2018-10-11T10:31:55.401Z,8.50
2018-10-11T10:32:55.633Z,9.00
2018-10-11T10:33:55.867Z,7.60
2018-10-11T10:34:56.096Z,8.40
2018-10-11T10:35:56.330Z,8.50
2018-10-11T10:36:56.559Z,8.80
2018-10-11T10:37:56.789Z,8.50
2018-10-11T10:38:57.021Z,8.60
2018-10-11T10:39:57.323Z,8.20
2018-10-11T10:40:57.482Z,8.30
2018-10-11T10:41:57.715Z,8.60
2018-10-11T10:42:57.952Z,8.40
2018-10-11T10:43:58.180Z,8.20
2018-10-11T10:44:58.410Z,8.50
2018-10-11T10:45:58.639Z,7.60
2018-10-11T10:46:58.873Z,7.40
2018-10-11T10:47:59.102Z,7.60
2018-10-11T10:48:59.401Z,7.30
2018-10-11T10:49:59.568Z,7.80
2018-10-11T10:50:59.800Z,7.80
2018-10-11T10:52:00.031Z,8.10
2018-10-11T10:53:00.264Z,7.60
2018-10-11T10:54:00.494Z,7.10
2018-10-11T10:55:00.725Z,8.20
2018-10-11T10:56:00.974Z,7.90
2018-10-11T10:57:01.220Z,7.40
2018-10-11T10:58:01.452Z,7.30
2018-10-11T10:59:01.685Z,7.90
2018-10-11T11:00:01.924Z,7.60
2018-10-11T11:01:02.149Z,8.00
2018-10-11T11:02:02.377Z,8.50
2018-10-11T11:03:02.625Z,7.70
2018-10-11T11:04:02.873Z,7.40
2018-10-11T11:05:03.081Z,7.70
2018-10-11T11:06:03.313Z,7.40
2018-10-11T11:07:03.544Z,7.50
2018-10-11T11:08:03.786Z,7.80
2018-10-11T11:09:04.021Z,7.80
2018-10-11T11:10:04.251Z,7.60
2018-10-11T11:11:04.493Z,6.80
2018-10-11T11:12:04.710Z,7.20
2018-10-11T11:13:04.951Z,8.10
2018-10-11T11:14:05.173Z,7.40
2018-10-11T11:15:05.407Z,7.80
2018-10-11T11:16:05.639Z,7.70
2018-10-11T11:17:05.887Z,7.30
2018-10-11T11:18:06.108Z,7.30
2018-10-11T11:19:06.338Z,7.40
2018-10-11T11:20:06.570Z,7.70
2018-10-11T11:21:06.800Z,8.00
2018-10-11T11:22:07.036Z,7.70
2018-10-11T11:23:07.270Z,7.00
2018-10-11T11:24:07.509Z,7.80
2018-10-11T11:25:07.750Z,8.40
2018-10-11T11:26:07.972Z,7.70
2018-10-11T11:27:08.204Z,7.60
2018-10-11T11:28:08.439Z,7.80
2018-10-11T11:29:08.670Z,7.50
2018-10-11T11:30:08.904Z,7.70
2018-10-11T11:31:09.140Z,7.00
2018-10-11T11:32:09.363Z,8.00
2018-10-11T11:33:09.596Z,7.70
2018-10-11T11:34:09.827Z,8.10
2018-10-11T11:35:10.061Z,7.90
2018-10-11T11:36:10.292Z,8.10
2018-10-11T11:37:10.526Z,7.20
2018-10-11T11:38:10.759Z,7.10
2018-10-11T11:39:10.993Z,7.30
2018-10-11T11:40:11.223Z,6.70
2018-10-11T11:41:11.453Z,7.50
2018-10-11T11:42:11.683Z,7.60
2018-10-11T11:43:11.915Z,7.70
2018-10-11T11:44:12.149Z,7.70
2018-10-11T11:45:12.382Z,7.50
2018-10-11T11:46:12.612Z,7.60
2018-10-11T11:47:12.843Z,7.30
2018-10-11T11:48:13.075Z,7.40
2018-10-11T11:49:13.309Z,7.80
2018-10-11T11:50:13.543Z,7.90
2018-10-11T11:51:13.773Z,7.50
2018-10-11T11:52:14.044Z,7.40
2018-10-11T11:53:14.377Z,7.50
2018-10-11T11:54:14.477Z,7.60
2018-10-11T11:55:14.708Z,7.70
2018-10-11T11:56:14.940Z,7.10
2018-10-11T11:57:15.171Z,7.50
2018-10-11T11:58:15.407Z,7.10
2018-10-11T11:59:15.699Z,7.20
2018-10-11T12:00:15.868Z,7.10
2018-10-11T12:01:16.098Z,7.80
2018-10-11T12:02:16.426Z,7.00
2018-10-11T12:03:16.567Z,7.30
2018-10-11T12:04:16.799Z,7.50
2018-10-11T12:05:17.116Z,7.30
2018-10-11T12:06:17.265Z,6.90
2018-10-11T12:07:17.498Z,7.30
2018-10-11T12:08:17.729Z,7.60
2018-10-11T12:09:17.964Z,6.90
2018-10-11T12:10:18.250Z,7.00
2018-10-11T12:11:18.429Z,7.10
2018-10-11T12:12:18.663Z,7.10
2018-10-11T12:13:18.902Z,6.40
2018-10-11T12:14:19.130Z,6.90
2018-10-11T12:15:19.362Z,7.30
2018-10-11T12:16:19.593Z,6.90
2018-10-11T12:17:19.829Z,7.70
2018-10-11T12:18:20.064Z,7.30
2018-10-11T12:19:20.307Z,7.10
2018-10-11T12:20:20.533Z,6.90
2018-10-11T12:21:20.766Z,7.10
2018-10-11T12:22:20.999Z,6.50
2018-10-11T12:23:21.233Z,7.00
2018-10-11T12:24:21.464Z,7.40
2018-10-11T12:25:21.697Z,6.90
2018-10-11T12:26:22.000Z,6.80
2018-10-11T12:27:22.166Z,7.10
2018-10-11T12:28:22.477Z,7.30
2018-10-11T12:29:22.632Z,7.00
2018-10-11T12:30:22.865Z,6.90
2018-10-11T12:31:23.101Z,7.00
2018-10-11T12:32:23.333Z,7.40
2018-10-11T12:33:23.568Z,6.90
2018-10-11T12:34:23.805Z,7.20
2018-10-11T12:35:24.036Z,6.60
2018-10-11T12:36:24.330Z,7.00
2018-10-11T12:37:24.503Z,7.00
2018-10-11T12:38:24.737Z,7.20
2018-10-11T12:39:24.973Z,6.80
2018-10-11T12:40:25.205Z,6.30
2018-10-11T12:41:25.437Z,6.60
2018-10-11T12:42:25.712Z,6.90
2018-10-11T12:43:25.907Z,6.70
2018-10-11T12:44:26.138Z,6.60
2018-10-11T12:45:26.527Z,7.00
2018-10-11T12:46:26.607Z,7.20
2018-10-11T12:47:26.842Z,7.10
2018-10-11T12:48:27.074Z,6.70
2018-10-11T12:49:27.501Z,7.40
2018-10-11T12:50:27.541Z,6.80
2018-10-11T12:51:27.776Z,6.80
2018-10-11T12:52:28.059Z,6.70
2018-10-11T12:53:28.240Z,6.80
2018-10-11T12:54:28.472Z,6.80
2018-10-11T12:55:28.706Z,6.50
2018-10-11T12:56:29.023Z,6.50
2018-10-11T12:57:29.201Z,6.70
2018-10-11T12:58:29.410Z,7.20
2018-10-11T12:59:29.645Z,7.40
2018-10-11T13:00:29.877Z,6.80
2018-10-11T13:01:30.114Z,7.50